sensor_id;sensor_type;location;lat;lon;timestamp;pressure;altitude;pressure_sealevel;temperature;humidity
25947;BME280;13745;51.470;9.894;2023-08-21T00:00:28;99998.34;;;22.47;85.69
25947;BME280;13745;51.470;9.894;2023-08-21T00:03:13;100000.22;;;22.45;85.45
25947;BME280;13745;51.470;9.894;2023-08-21T00:05:59;100005.59;;;22.43;85.34
25947;BME280;13745;51.470;9.894;2023-08-21T00:08:44;99994.22;;;22.41;85.47
25947;BME280;13745;51.470;9.894;2023-08-21T00:11:30;99996.97;;;22.39;85.79
25947;BME280;13745;51.470;9.894;2023-08-21T00:14:15;99997.91;;;22.38;85.51
25947;BME280;13745;51.470;9.894;2023-08-21T00:17:01;99986.66;;;22.35;85.74
25947;BME280;13745;51.470;9.894;2023-08-21T00:19:47;99980.53;;;22.34;85.90
25947;BME280;13745;51.470;9.894;2023-08-21T00:22:32;99992.94;;;22.32;86.22
25947;BME280;13745;51.470;9.894;2023-08-21T00:25:17;100000.09;;;22.30;85.99
25947;BME280;13745;51.470;9.894;2023-08-21T00:28:04;99993.09;;;22.29;85.82
25947;BME280;13745;51.470;9.894;2023-08-21T00:30:49;99984.53;;;22.24;86.15
25947;BME280;13745;51.470;9.894;2023-08-21T00:33:35;99989.06;;;22.22;85.89
25947;BME280;13745;51.470;9.894;2023-08-21T00:36:20;99988.28;;;22.20;86.15
25947;BME280;13745;51.470;9.894;2023-08-21T00:39:07;99987.56;;;22.17;86.70
25947;BME280;13745;51.470;9.894;2023-08-21T00:41:52;99986.72;;;22.16;86.65
25947;BME280;13745;51.470;9.894;2023-08-21T00:44:38;99974.47;;;22.15;86.56
25947;BME280;13745;51.470;9.894;2023-08-21T00:47:23;99978.03;;;22.14;86.45
25947;BME280;13745;51.470;9.894;2023-08-21T00:50:09;99978.03;;;22.14;86.42
25947;BME280;13745;51.470;9.894;2023-08-21T00:52:55;99971.13;;;22.11;86.00
25947;BME280;13745;51.470;9.894;2023-08-21T00:55:41;99980.97;;;22.08;86.15
25947;BME280;13745;51.470;9.894;2023-08-21T00:58:26;99973.38;;;22.02;86.59
25947;BME280;13745;51.470;9.894;2023-08-21T01:01:15;99971.78;;;21.98;86.78
25947;BME280;13745;51.470;9.894;2023-08-21T01:04:02;99965.88;;;21.93;86.38
25947;BME280;13745;51.470;9.894;2023-08-21T01:06:48;99957.28;;;21.89;86.53
25947;BME280;13745;51.470;9.894;2023-08-21T01:09:39;99962.63;;;21.87;86.27
25947;BME280;13745;51.470;9.894;2023-08-21T01:12:31;99963.69;;;21.83;86.38
25947;BME280;13745;51.470;9.894;2023-08-21T01:15:18;99948.19;;;21.77;86.68
25947;BME280;13745;51.470;9.894;2023-08-21T01:18:05;99958.03;;;21.74;86.79
25947;BME280;13745;51.470;9.894;2023-08-21T01:20:51;99973.19;;;21.70;86.85
25947;BME280;13745;51.470;9.894;2023-08-21T01:23:38;99965.56;;;21.64;86.45
25947;BME280;13745;51.470;9.894;2023-08-21T01:26:23;99976.28;;;21.61;86.76
25947;BME280;13745;51.470;9.894;2023-08-21T01:29:10;99963.22;;;21.58;87.23
25947;BME280;13745;51.470;9.894;2023-08-21T01:31:59;99958.03;;;21.56;86.77
25947;BME280;13745;51.470;9.894;2023-08-21T01:34:47;99968.66;;;21.55;87.03
25947;BME280;13745;51.470;9.894;2023-08-21T01:37:35;99965.94;;;21.56;87.21
25947;BME280;13745;51.470;9.894;2023-08-21T01:40:24;99971.22;;;21.56;86.87
25947;BME280;13745;51.470;9.894;2023-08-21T01:43:09;99968.41;;;21.59;87.14
25947;BME280;13745;51.470;9.894;2023-08-21T01:45:54;99963.94;;;21.62;87.30
25947;BME280;13745;51.470;9.894;2023-08-21T01:48:40;99969.06;;;21.65;87.33
25947;BME280;13745;51.470;9.894;2023-08-21T01:51:25;99973.31;;;21.67;86.77
25947;BME280;13745;51.470;9.894;2023-08-21T01:54:10;99971.53;;;21.68;86.98
25947;BME280;13745;51.470;9.894;2023-08-21T01:56:56;99969.78;;;21.68;87.50
25947;BME280;13745;51.470;9.894;2023-08-21T01:59:42;99971.47;;;21.69;86.79
25947;BME280;13745;51.470;9.894;2023-08-21T02:02:28;99974.88;;;21.71;86.64
25947;BME280;13745;51.470;9.894;2023-08-21T02:05:14;99975.75;;;21.72;86.43
25947;BME280;13745;51.470;9.894;2023-08-21T02:07:59;99970.38;;;21.73;86.32
25947;BME280;13745;51.470;9.894;2023-08-21T02:10:51;99966.72;;;21.76;85.98
25947;BME280;13745;51.470;9.894;2023-08-21T02:13:38;99963.19;;;21.77;85.91
25947;BME280;13745;51.470;9.894;2023-08-21T02:16:23;99963.19;;;21.77;86.59
25947;BME280;13745;51.470;9.894;2023-08-21T02:19:10;99965.75;;;21.78;86.35
25947;BME280;13745;51.470;9.894;2023-08-21T02:21:55;99964.81;;;21.79;86.19
25947;BME280;13745;51.470;9.894;2023-08-21T02:24:40;99974.59;;;21.77;86.48
25947;BME280;13745;51.470;9.894;2023-08-21T02:27:26;99971.03;;;21.78;86.06
25947;BME280;13745;51.470;9.894;2023-08-21T02:30:12;99962.47;;;21.73;85.25
25947;BME280;13745;51.470;9.894;2023-08-21T02:32:58;99957.44;;;21.69;85.49
25947;BME280;13745;51.470;9.894;2023-08-21T02:35:43;99969.78;;;21.68;85.99
25947;BME280;13745;51.470;9.894;2023-08-21T02:38:28;99964.50;;;21.68;85.90
25947;BME280;13745;51.470;9.894;2023-08-21T02:41:14;99962.72;;;21.69;86.06
25947;BME280;13745;51.470;9.894;2023-08-21T02:43:59;99966.19;;;21.69;86.15
25947;BME280;13745;51.470;9.894;2023-08-21T02:46:45;99967.06;;;21.70;86.44
25947;BME280;13745;51.470;9.894;2023-08-21T02:49:31;99971.53;;;21.68;86.17
25947;BME280;13745;51.470;9.894;2023-08-21T02:52:17;99968.03;;;21.67;86.21
25947;BME280;13745;51.470;9.894;2023-08-21T02:55:03;99961.13;;;21.65;86.21
25947;BME280;13745;51.470;9.894;2023-08-21T02:57:48;99968.38;;;21.61;86.14
25947;BME280;13745;51.470;9.894;2023-08-21T03:00:33;99955.38;;;21.56;86.49
25947;BME280;13745;51.470;9.894;2023-08-21T03:03:20;99952.19;;;21.50;86.45
25947;BME280;13745;51.470;9.894;2023-08-21T03:06:05;99955.16;;;21.44;86.29
25947;BME280;13745;51.470;9.894;2023-08-21T03:08:50;99965.06;;;21.39;85.65
25947;BME280;13745;51.470;9.894;2023-08-21T03:11:35;99952.06;;;21.34;85.57
25947;BME280;13745;51.470;9.894;2023-08-21T03:14:21;99963.63;;;21.31;86.25
25947;BME280;13745;51.470;9.894;2023-08-21T03:17:06;99956.91;;;21.24;85.63
25947;BME280;13745;51.470;9.894;2023-08-21T03:19:53;99952.94;;;21.16;85.91
25947;BME280;13745;51.470;9.894;2023-08-21T03:22:40;99948.66;;;21.13;86.08
25947;BME280;13745;51.470;9.894;2023-08-21T03:25:25;99954.94;;;21.11;86.06
25947;BME280;13745;51.470;9.894;2023-08-21T03:28:12;99940.91;;;21.10;86.03
25947;BME280;13745;51.470;9.894;2023-08-21T03:30:57;99953.28;;;21.08;86.37
25947;BME280;13745;51.470;9.894;2023-08-21T03:33:42;99952.50;;;21.06;86.37
25947;BME280;13745;51.470;9.894;2023-08-21T03:36:30;99947.44;;;21.01;86.06
25947;BME280;13745;51.470;9.894;2023-08-21T03:39:17;99949.53;;;20.95;86.05
25947;BME280;13745;51.470;9.894;2023-08-21T03:42:05;99946.34;;;20.88;86.02
25947;BME280;13745;51.470;9.894;2023-08-21T03:44:50;99952.53;;;20.87;86.33
25947;BME280;13745;51.470;9.894;2023-08-21T03:47:35;99946.47;;;20.85;86.04
25947;BME280;13745;51.470;9.894;2023-08-21T03:50:26;99945.75;;;20.82;86.43
25947;BME280;13745;51.470;9.894;2023-08-21T03:53:13;99948.63;;;20.77;86.09
25947;BME280;13745;51.470;9.894;2023-08-21T03:55:58;99945.25;;;20.73;86.26
25947;BME280;13745;51.470;9.894;2023-08-21T03:58:44;99949.81;;;20.70;86.33
25947;BME280;13745;51.470;9.894;2023-08-21T04:01:30;99943.03;;;20.64;86.32
25947;BME280;13745;51.470;9.894;2023-08-21T04:04:16;99945.88;;;20.60;86.13
25947;BME280;13745;51.470;9.894;2023-08-21T04:07:01;99947.88;;;20.55;86.54
25947;BME280;13745;51.470;9.894;2023-08-21T04:09:47;99951.63;;;20.49;86.76
25947;BME280;13745;51.470;9.894;2023-08-21T04:12:32;99963.25;;;20.45;86.47
25947;BME280;13745;51.470;9.894;2023-08-21T04:15:17;99960.78;;;20.40;86.80
25947;BME280;13745;51.470;9.894;2023-08-21T04:18:03;99954.06;;;20.33;87.07
25947;BME280;13745;51.470;9.894;2023-08-21T04:20:49;99954.31;;;20.27;86.84
25947;BME280;13745;51.470;9.894;2023-08-21T04:23:34;99953.63;;;20.24;86.94
25947;BME280;13745;51.470;9.894;2023-08-21T04:26:20;99957.34;;;20.18;87.52
25947;BME280;13745;51.470;9.894;2023-08-21T04:29:06;99965.41;;;20.15;87.42
25947;BME280;13745;51.470;9.894;2023-08-21T04:31:51;99968.97;;;20.14;87.35
25947;BME280;13745;51.470;9.894;2023-08-21T04:34:36;99977.00;;;20.11;87.44
25947;BME280;13745;51.470;9.894;2023-08-21T04:37:21;99971.78;;;20.09;88.07
25947;BME280;13745;51.470;9.894;2023-08-21T04:40:09;99974.41;;;20.09;87.68
25947;BME280;13745;51.470;9.894;2023-08-21T04:42:56;99981.44;;;20.09;88.02
25947;BME280;13745;51.470;9.894;2023-08-21T04:45:47;99984.22;;;20.06;88.06
25947;BME280;13745;51.470;9.894;2023-08-21T04:48:33;99995.69;;;20.05;87.74
25947;BME280;13745;51.470;9.894;2023-08-21T04:51:19;99988.81;;;20.01;87.67
25947;BME280;13745;51.470;9.894;2023-08-21T04:54:04;99990.59;;;20.00;87.87
25947;BME280;13745;51.470;9.894;2023-08-21T04:56:49;99995.94;;;19.99;88.38
25947;BME280;13745;51.470;9.894;2023-08-21T04:59:36;99989.88;;;19.97;88.42
25947;BME280;13745;51.470;9.894;2023-08-21T05:02:21;99993.47;;;19.94;88.07
25947;BME280;13745;51.470;9.894;2023-08-21T05:05:08;99992.63;;;19.93;88.25
25947;BME280;13745;51.470;9.894;2023-08-21T05:07:54;99998.75;;;19.94;88.32
25947;BME280;13745;51.470;9.894;2023-08-21T05:10:40;100002.28;;;19.93;87.90
25947;BME280;13745;51.470;9.894;2023-08-21T05:13:25;99997.03;;;19.93;88.32
25947;BME280;13745;51.470;9.894;2023-08-21T05:16:12;99997.09;;;19.91;88.09
25947;BME280;13745;51.470;9.894;2023-08-21T05:18:59;99994.41;;;19.93;87.95
25947;BME280;13745;51.470;9.894;2023-08-21T05:21:45;99995.16;;;19.97;88.27
25947;BME280;13745;51.470;9.894;2023-08-21T05:24:30;99998.50;;;20.00;88.13
25947;BME280;13745;51.470;9.894;2023-08-21T05:27:20;99998.31;;;20.05;88.56
25947;BME280;13745;51.470;9.894;2023-08-21T05:30:07;99998.84;;;20.13;88.27
25947;BME280;13745;51.470;9.894;2023-08-21T05:32:55;99995.22;;;20.15;87.70
25947;BME280;13745;51.470;9.894;2023-08-21T05:35:41;99994.19;;;20.19;87.58
25947;BME280;13745;51.470;9.894;2023-08-21T05:38:27;100002.63;;;20.26;87.64
25947;BME280;13745;51.470;9.894;2023-08-21T05:41:13;100000.53;;;20.34;87.36
25947;BME280;13745;51.470;9.894;2023-08-21T05:43:58;100005.38;;;20.45;86.86
25947;BME280;13745;51.470;9.894;2023-08-21T05:46:44;100001.34;;;20.57;87.01
25947;BME280;13745;51.470;9.894;2023-08-21T05:49:31;100003.38;;;20.70;86.47
25947;BME280;13745;51.470;9.894;2023-08-21T05:52:16;100008.84;;;20.85;86.10
25947;BME280;13745;51.470;9.894;2023-08-21T05:55:01;100011.66;;;21.00;85.96
25947;BME280;13745;51.470;9.894;2023-08-21T05:57:46;100010.25;;;21.12;85.75
25947;BME280;13745;51.470;9.894;2023-08-21T06:00:34;100007.94;;;21.23;85.27
25947;BME280;13745;51.470;9.894;2023-08-21T06:03:20;100009.25;;;21.34;85.19
25947;BME280;13745;51.470;9.894;2023-08-21T06:06:20;100015.75;;;21.45;84.69
25947;BME280;13745;51.470;9.894;2023-08-21T06:09:06;100015.31;;;21.54;84.63
25947;BME280;13745;51.470;9.894;2023-08-21T06:11:51;100016.41;;;21.68;84.70
25947;BME280;13745;51.470;9.894;2023-08-21T06:14:37;100012.31;;;21.79;84.49
25947;BME280;13745;51.470;9.894;2023-08-21T06:17:22;100008.94;;;21.95;83.23
25947;BME280;13745;51.470;9.894;2023-08-21T06:20:08;100013.75;;;22.04;83.69
25947;BME280;13745;51.470;9.894;2023-08-21T06:22:54;100007.34;;;22.09;84.32
25947;BME280;13745;51.470;9.894;2023-08-21T06:25:41;100006.91;;;22.17;84.39
25947;BME280;13745;51.470;9.894;2023-08-21T06:28:28;100011.75;;;22.26;84.32
25947;BME280;13745;51.470;9.894;2023-08-21T06:31:14;100020.06;;;22.36;84.36
25947;BME280;13745;51.470;9.894;2023-08-21T06:34:00;100013.44;;;22.45;84.11
25947;BME280;13745;51.470;9.894;2023-08-21T06:36:46;100020.72;;;22.57;84.15
25947;BME280;13745;51.470;9.894;2023-08-21T06:39:33;100024.53;;;22.68;83.88
25947;BME280;13745;51.470;9.894;2023-08-21T06:42:18;100023.19;;;22.77;83.94
25947;BME280;13745;51.470;9.894;2023-08-21T06:45:08;100030.47;;;22.89;83.68
25947;BME280;13745;51.470;9.894;2023-08-21T06:47:53;100030.81;;;22.99;83.67
25947;BME280;13745;51.470;9.894;2023-08-21T06:50:39;100031.97;;;23.11;82.92
25947;BME280;13745;51.470;9.894;2023-08-21T06:53:24;100035.72;;;23.22;83.05
25947;BME280;13745;51.470;9.894;2023-08-21T06:56:10;100022.59;;;23.37;83.15
25947;BME280;13745;51.470;9.894;2023-08-21T06:58:56;100030.69;;;23.49;82.58
25947;BME280;13745;51.470;9.894;2023-08-21T07:01:41;100033.00;;;23.55;82.46
25947;BME280;13745;51.470;9.894;2023-08-21T07:04:26;100026.84;;;23.55;82.01
25947;BME280;13745;51.470;9.894;2023-08-21T07:07:12;100016.63;;;23.65;82.31
25947;BME280;13745;51.470;9.894;2023-08-21T07:09:57;100022.09;;;23.77;81.69
25947;BME280;13745;51.470;9.894;2023-08-21T07:12:45;100021.19;;;23.93;81.39
25947;BME280;13745;51.470;9.894;2023-08-21T07:15:30;100021.31;;;24.05;81.09
25947;BME280;13745;51.470;9.894;2023-08-21T07:18:16;100028.91;;;24.12;80.57
25947;BME280;13745;51.470;9.894;2023-08-21T07:21:01;100031.47;;;24.13;80.56
25947;BME280;13745;51.470;9.894;2023-08-21T07:23:48;100029.81;;;24.26;80.03
25947;BME280;13745;51.470;9.894;2023-08-21T07:26:33;100035.94;;;24.43;79.36
25947;BME280;13745;51.470;9.894;2023-08-21T07:29:19;100032.16;;;24.61;78.99
25947;BME280;13745;51.470;9.894;2023-08-21T07:32:05;100021.00;;;24.84;78.50
25947;BME280;13745;51.470;9.894;2023-08-21T07:34:52;100025.84;;;25.06;78.06
25947;BME280;13745;51.470;9.894;2023-08-21T07:37:38;100021.09;;;25.26;77.80
25947;BME280;13745;51.470;9.894;2023-08-21T07:40:24;100021.59;;;25.45;77.26
25947;BME280;13745;51.470;9.894;2023-08-21T07:43:10;100024.00;;;25.35;76.88
25947;BME280;13745;51.470;9.894;2023-08-21T07:45:56;100015.69;;;25.13;76.92
25947;BME280;13745;51.470;9.894;2023-08-21T07:48:41;100018.09;;;25.03;77.03
25947;BME280;13745;51.470;9.894;2023-08-21T07:51:27;100019.78;;;25.18;76.74
25947;BME280;13745;51.470;9.894;2023-08-21T07:54:12;100017.63;;;25.38;76.30
25947;BME280;13745;51.470;9.894;2023-08-21T07:56:57;100017.59;;;25.52;75.83
25947;BME280;13745;51.470;9.894;2023-08-21T07:59:42;100008.66;;;25.67;75.55
25947;BME280;13745;51.470;9.894;2023-08-21T08:02:29;100010.09;;;25.86;74.57
25947;BME280;13745;51.470;9.894;2023-08-21T08:05:14;100014.84;;;26.08;74.01
25947;BME280;13745;51.470;9.894;2023-08-21T08:08:00;100017.44;;;26.35;73.49
25947;BME280;13745;51.470;9.894;2023-08-21T08:10:45;100015.78;;;26.59;73.03
25947;BME280;13745;51.470;9.894;2023-08-21T08:13:31;100012.25;;;26.84;72.48
25947;BME280;13745;51.470;9.894;2023-08-21T08:16:16;100021.06;;;27.10;71.97
25947;BME280;13745;51.470;9.894;2023-08-21T08:19:03;100010.00;;;27.16;71.61
25947;BME280;13745;51.470;9.894;2023-08-21T08:21:48;100012.66;;;27.16;71.64
25947;BME280;13745;51.470;9.894;2023-08-21T08:24:33;100014.25;;;26.93;72.26
25947;BME280;13745;51.470;9.894;2023-08-21T08:27:18;100009.06;;;26.79;72.64
25947;BME280;13745;51.470;9.894;2023-08-21T08:30:04;100002.03;;;26.78;72.56
25947;BME280;13745;51.470;9.894;2023-08-21T08:32:49;99999.78;;;26.84;72.31
25947;BME280;13745;51.470;9.894;2023-08-21T08:35:36;99993.28;;;27.01;72.21
25947;BME280;13745;51.470;9.894;2023-08-21T08:38:21;99997.94;;;27.23;71.77
25947;BME280;13745;51.470;9.894;2023-08-21T08:41:11;99999.38;;;27.40;71.25
25947;BME280;13745;51.470;9.894;2023-08-21T08:43:57;99996.53;;;27.54;71.32
25947;BME280;13745;51.470;9.894;2023-08-21T08:46:43;99997.00;;;27.72;71.14
25947;BME280;13745;51.470;9.894;2023-08-21T08:49:28;100005.06;;;27.83;70.97
25947;BME280;13745;51.470;9.894;2023-08-21T08:52:15;100003.91;;;27.98;69.70
25947;BME280;13745;51.470;9.894;2023-08-21T08:55:01;100008.81;;;28.16;69.13
25947;BME280;13745;51.470;9.894;2023-08-21T08:57:47;100005.50;;;28.36;68.94
25947;BME280;13745;51.470;9.894;2023-08-21T09:00:32;100005.88;;;28.54;69.27
25947;BME280;13745;51.470;9.894;2023-08-21T09:03:18;99992.44;;;28.67;68.82
25947;BME280;13745;51.470;9.894;2023-08-21T09:06:03;99996.94;;;28.89;68.53
25947;BME280;13745;51.470;9.894;2023-08-21T09:08:57;99999.25;;;29.16;68.26
25947;BME280;13745;51.470;9.894;2023-08-21T09:11:43;100003.31;;;29.42;67.76
25947;BME280;13745;51.470;9.894;2023-08-21T09:14:30;99999.38;;;29.69;67.31
25947;BME280;13745;51.470;9.894;2023-08-21T09:17:16;99999.75;;;29.96;65.65
25947;BME280;13745;51.470;9.894;2023-08-21T09:20:03;99997.63;;;30.32;64.96
25947;BME280;13745;51.470;9.894;2023-08-21T09:22:53;100001.28;;;30.72;64.37
25947;BME280;13745;51.470;9.894;2023-08-21T09:25:40;99994.31;;;31.41;62.54
25947;BME280;13745;51.470;9.894;2023-08-21T09:28:27;100000.81;;;32.91;60.23
25947;BME280;13745;51.470;9.894;2023-08-21T09:31:12;100000.72;;;34.45;57.12
25947;BME280;13745;51.470;9.894;2023-08-21T09:33:59;99997.88;;;36.14;53.90
25947;BME280;13745;51.470;9.894;2023-08-21T09:36:54;99986.22;;;36.30;53.92
25947;BME280;13745;51.470;9.894;2023-08-21T09:39:39;99995.81;;;35.51;55.21
25947;BME280;13745;51.470;9.894;2023-08-21T09:42:28;99992.94;;;37.06;52.76
25947;BME280;13745;51.470;9.894;2023-08-21T09:45:13;99994.19;;;37.65;52.52
25947;BME280;13745;51.470;9.894;2023-08-21T09:47:58;100001.28;;;36.96;52.67
25947;BME280;13745;51.470;9.894;2023-08-21T09:50:46;99987.63;;;35.93;54.31
25947;BME280;13745;51.470;9.894;2023-08-21T09:53:31;99999.22;;;35.11;55.22
25947;BME280;13745;51.470;9.894;2023-08-21T09:56:17;99986.84;;;34.40;55.44
25947;BME280;13745;51.470;9.894;2023-08-21T09:59:04;99980.97;;;34.19;56.05
25947;BME280;13745;51.470;9.894;2023-08-21T10:01:50;99981.38;;;36.09;54.06
25947;BME280;13745;51.470;9.894;2023-08-21T10:04:36;99968.22;;;37.71;51.45
25947;BME280;13745;51.470;9.894;2023-08-21T10:07:26;99960.75;;;38.63;49.83
25947;BME280;13745;51.470;9.894;2023-08-21T10:10:13;99973.44;;;39.22;48.44
25947;BME280;13745;51.470;9.894;2023-08-21T10:12:58;99965.03;;;39.31;48.04
25947;BME280;13745;51.470;9.894;2023-08-21T10:15:45;99957.50;;;39.33;48.40
25947;BME280;13745;51.470;9.894;2023-08-21T10:18:32;99960.19;;;38.97;48.88
25947;BME280;13745;51.470;9.894;2023-08-21T10:21:18;99962.34;;;38.28;49.59
25947;BME280;13745;51.470;9.894;2023-08-21T10:24:04;99964.03;;;37.91;50.07
25947;BME280;13745;51.470;9.894;2023-08-21T10:26:49;99954.88;;;37.70;50.26
25947;BME280;13745;51.470;9.894;2023-08-21T10:29:34;99954.75;;;37.40;50.38
25947;BME280;13745;51.470;9.894;2023-08-21T10:32:23;99944.63;;;37.03;50.70
25947;BME280;13745;51.470;9.894;2023-08-21T10:35:14;99957.81;;;36.59;51.64
25947;BME280;13745;51.470;9.894;2023-08-21T10:38:08;99958.19;;;36.23;51.78
25947;BME280;13745;51.470;9.894;2023-08-21T10:41:04;99960.94;;;35.98;52.45
25947;BME280;13745;51.470;9.894;2023-08-21T10:43:50;99959.03;;;35.74;52.06
25947;BME280;13745;51.470;9.894;2023-08-21T10:46:53;99958.19;;;35.50;51.82
25947;BME280;13745;51.470;9.894;2023-08-21T10:49:40;99955.09;;;35.28;52.04
25947;BME280;13745;51.470;9.894;2023-08-21T10:52:27;99958.22;;;35.07;52.82
25947;BME280;13745;51.470;9.894;2023-08-21T10:55:13;99958.53;;;34.96;53.13
25947;BME280;13745;51.470;9.894;2023-08-21T10:57:59;99961.03;;;34.89;53.33
25947;BME280;13745;51.470;9.894;2023-08-21T11:00:44;99953.72;;;34.82;53.33
25947;BME280;13745;51.470;9.894;2023-08-21T11:03:29;99958.28;;;34.81;53.46
25947;BME280;13745;51.470;9.894;2023-08-21T11:06:18;99950.53;;;34.78;53.34
25947;BME280;13745;51.470;9.894;2023-08-21T11:09:04;99960.09;;;34.73;53.02
25947;BME280;13745;51.470;9.894;2023-08-21T11:11:49;99955.34;;;34.67;52.79
25947;BME280;13745;51.470;9.894;2023-08-21T11:14:37;99946.88;;;34.53;52.90
25947;BME280;13745;51.470;9.894;2023-08-21T11:17:23;99952.53;;;34.42;53.41
25947;BME280;13745;51.470;9.894;2023-08-21T11:20:08;99955.53;;;34.39;53.10
25947;BME280;13745;51.470;9.894;2023-08-21T11:22:57;99948.63;;;34.36;53.46
25947;BME280;13745;51.470;9.894;2023-08-21T11:25:43;99950.25;;;34.29;54.28
25947;BME280;13745;51.470;9.894;2023-08-21T11:28:29;99940.00;;;34.33;54.65
25947;BME280;13745;51.470;9.894;2023-08-21T11:31:16;99943.84;;;34.30;54.74
25947;BME280;13745;51.470;9.894;2023-08-21T11:34:01;99938.31;;;34.32;54.13
25947;BME280;13745;51.470;9.894;2023-08-21T11:36:46;99940.84;;;34.33;54.49
25947;BME280;13745;51.470;9.894;2023-08-21T11:39:41;99935.81;;;34.39;54.37
25947;BME280;13745;51.470;9.894;2023-08-21T11:42:29;99938.22;;;34.42;54.47
25947;BME280;13745;51.470;9.894;2023-08-21T11:45:15;99943.66;;;34.50;53.79
25947;BME280;13745;51.470;9.894;2023-08-21T11:48:00;99940.34;;;34.64;53.52
25947;BME280;13745;51.470;9.894;2023-08-21T11:50:48;99926.25;;;34.70;53.72
25947;BME280;13745;51.470;9.894;2023-08-21T11:53:35;99933.06;;;34.56;53.61
25947;BME280;13745;51.470;9.894;2023-08-21T11:56:27;99925.13;;;34.21;55.09
25947;BME280;13745;51.470;9.894;2023-08-21T11:59:21;99925.31;;;33.84;55.92
25947;BME280;13745;51.470;9.894;2023-08-21T12:02:12;99922.97;;;33.63;55.98
25947;BME280;13745;51.470;9.894;2023-08-21T12:05:01;99926.13;;;33.40;56.70
25947;BME280;13745;51.470;9.894;2023-08-21T12:07:48;99932.50;;;33.39;56.59
25947;BME280;13745;51.470;9.894;2023-08-21T12:10:34;99917.19;;;33.75;56.53
25947;BME280;13745;51.470;9.894;2023-08-21T12:13:21;99921.03;;;34.17;55.34
25947;BME280;13745;51.470;9.894;2023-08-21T12:16:06;99920.22;;;34.42;54.75
25947;BME280;13745;51.470;9.894;2023-08-21T12:18:51;99912.16;;;34.50;54.56
25947;BME280;13745;51.470;9.894;2023-08-21T12:21:36;99924.91;;;34.40;54.06
25947;BME280;13745;51.470;9.894;2023-08-21T12:24:21;99926.19;;;34.28;54.45
25947;BME280;13745;51.470;9.894;2023-08-21T12:27:07;99923.66;;;34.26;54.25
25947;BME280;13745;51.470;9.894;2023-08-21T12:29:54;99921.09;;;34.25;55.10
25947;BME280;13745;51.470;9.894;2023-08-21T12:32:40;99918.78;;;34.30;55.01
25947;BME280;13745;51.470;9.894;2023-08-21T12:35:25;99917.03;;;33.95;55.57
25947;BME280;13745;51.470;9.894;2023-08-21T12:38:11;99923.44;;;33.58;56.90
25947;BME280;13745;51.470;9.894;2023-08-21T12:40:57;99922.00;;;33.46;56.66
25947;BME280;13745;51.470;9.894;2023-08-21T12:43:42;99915.69;;;33.37;57.12
25947;BME280;13745;51.470;9.894;2023-08-21T12:46:29;99906.84;;;33.27;56.73
25947;BME280;13745;51.470;9.894;2023-08-21T12:49:14;99905.25;;;33.07;57.50
25947;BME280;13745;51.470;9.894;2023-08-21T12:51:59;99905.69;;;32.84;57.24
25947;BME280;13745;51.470;9.894;2023-08-21T12:54:44;99906.91;;;32.62;57.63
25947;BME280;13745;51.470;9.894;2023-08-21T12:57:29;99912.38;;;32.70;57.34
25947;BME280;13745;51.470;9.894;2023-08-21T13:00:15;99899.34;;;32.76;57.40
25947;BME280;13745;51.470;9.894;2023-08-21T13:03:02;99900.91;;;32.78;57.47
25947;BME280;13745;51.470;9.894;2023-08-21T13:05:48;99900.34;;;32.75;57.08
25947;BME280;13745;51.470;9.894;2023-08-21T13:08:33;99906.03;;;32.72;57.36
25947;BME280;13745;51.470;9.894;2023-08-21T13:11:18;99904.59;;;32.77;56.39
25947;BME280;13745;51.470;9.894;2023-08-21T13:14:03;99898.28;;;32.96;56.40
25947;BME280;13745;51.470;9.894;2023-08-21T13:16:48;99901.41;;;33.09;56.26
25947;BME280;13745;51.470;9.894;2023-08-21T13:19:35;99895.13;;;33.01;56.50
25947;BME280;13745;51.470;9.894;2023-08-21T13:22:20;99902.88;;;32.86;56.91
25947;BME280;13745;51.470;9.894;2023-08-21T13:25:05;99899.03;;;32.88;56.71
25947;BME280;13745;51.470;9.894;2023-08-21T13:27:51;99894.34;;;32.90;57.05
25947;BME280;13745;51.470;9.894;2023-08-21T13:30:36;99896.22;;;32.80;57.14
25947;BME280;13745;51.470;9.894;2023-08-21T13:33:22;99889.69;;;32.83;57.32
25947;BME280;13745;51.470;9.894;2023-08-21T13:36:08;99886.88;;;32.84;56.71
25947;BME280;13745;51.470;9.894;2023-08-21T13:38:53;99880.69;;;32.74;56.94
25947;BME280;13745;51.470;9.894;2023-08-21T13:41:38;99885.13;;;32.65;57.44
25947;BME280;13745;51.470;9.894;2023-08-21T13:44:23;99879.66;;;32.57;57.15
25947;BME280;13745;51.470;9.894;2023-08-21T13:47:08;99881.53;;;32.47;57.30
25947;BME280;13745;51.470;9.894;2023-08-21T13:49:55;99878.59;;;32.40;56.99
25947;BME280;13745;51.470;9.894;2023-08-21T13:52:42;99872.69;;;32.37;57.65
25947;BME280;13745;51.470;9.894;2023-08-21T13:55:27;99880.47;;;32.30;57.32
25947;BME280;13745;51.470;9.894;2023-08-21T13:58:13;99877.34;;;32.25;57.86
25947;BME280;13745;51.470;9.894;2023-08-21T14:00:58;99877.81;;;32.21;57.17
25947;BME280;13745;51.470;9.894;2023-08-21T14:03:44;99872.19;;;32.14;57.84
25947;BME280;13745;51.470;9.894;2023-08-21T14:06:29;99872.44;;;32.21;57.68
25947;BME280;13745;51.470;9.894;2023-08-21T14:09:16;99863.09;;;32.25;57.27
25947;BME280;13745;51.470;9.894;2023-08-21T14:12:01;99864.44;;;32.11;58.20
25947;BME280;13745;51.470;9.894;2023-08-21T14:14:46;99864.47;;;31.92;59.07
25947;BME280;13745;51.470;9.894;2023-08-21T14:17:31;99871.16;;;31.78;58.96
25947;BME280;13745;51.470;9.894;2023-08-21T14:20:16;99868.59;;;31.76;58.34
25947;BME280;13745;51.470;9.894;2023-08-21T14:23:02;99859.69;;;31.85;58.55
25947;BME280;13745;51.470;9.894;2023-08-21T14:25:48;99851.78;;;31.74;58.84
25947;BME280;13745;51.470;9.894;2023-08-21T14:28:34;99842.03;;;31.73;58.44
25947;BME280;13745;51.470;9.894;2023-08-21T14:31:20;99853.91;;;31.71;58.71
25947;BME280;13745;51.470;9.894;2023-08-21T14:34:05;99845.31;;;31.77;58.71
25947;BME280;13745;51.470;9.894;2023-08-21T14:36:50;99835.25;;;31.69;58.99